createdAt,value
2023-04-12T00:00:53.094Z,99180.06
2023-04-12T00:03:40.863Z,99147.50
2023-04-12T00:06:32.863Z,99173.78
2023-04-12T00:09:21.149Z,99159.94
2023-04-12T00:12:08.882Z,99180.56
2023-04-12T00:14:56.574Z,99144.91
2023-04-12T00:17:45.162Z,99160.06
2023-04-12T00:20:33.095Z,99172.69
2023-04-12T00:23:21.154Z,99150.88
2023-04-12T00:26:08.816Z,99164.69
2023-04-12T00:28:57.215Z,99159.47
2023-04-12T00:31:45.071Z,99056.22
2023-04-12T00:34:32.936Z,99150.13
2023-04-12T00:37:21.140Z,99154.06
2023-04-12T00:40:10.292Z,99072.13
2023-04-12T00:42:57.972Z,99171.41
2023-04-12T00:45:48.052Z,99130.41
2023-04-12T00:48:38.006Z,99163.25
2023-04-12T00:51:25.844Z,99167.19
2023-04-12T00:54:14.516Z,99174.19
2023-04-12T00:57:03.099Z,99131.53
2023-04-12T00:59:52.408Z,99156.06
2023-04-12T01:02:48.076Z,99163.53
2023-04-12T01:05:43.849Z,99156.44
2023-04-12T01:08:58.240Z,99157.50
2023-04-12T01:11:59.480Z,99081.41
2023-04-12T01:15:08.292Z,99146.84
2023-04-12T01:18:06.200Z,99133.16
2023-04-12T01:21:18.926Z,99138.16
2023-04-12T01:24:23.637Z,99085.13
2023-04-12T01:27:30.084Z,99142.41
2023-04-12T01:30:20.540Z,99138.34
2023-04-12T01:33:12.144Z,99133.13
2023-04-12T01:36:02.750Z,99139.28
2023-04-12T01:38:51.962Z,99124.22
2023-04-12T01:41:42.382Z,99134.28
2023-04-12T01:44:29.982Z,99131.00
2023-04-12T01:47:17.995Z,99128.81
2023-04-12T01:50:32.689Z,99128.69
2023-04-12T01:53:20.574Z,99138.63
2023-04-12T01:56:09.962Z,99132.63
2023-04-12T01:58:59.315Z,99116.28
2023-04-12T02:01:47.754Z,99149.66
2023-04-12T02:04:37.481Z,99134.19
2023-04-12T02:07:25.177Z,99076.94
2023-04-12T02:10:15.850Z,99134.16
2023-04-12T02:13:04.457Z,99139.38
2023-04-12T02:15:55.048Z,99116.53
2023-04-12T02:18:45.853Z,99115.53
2023-04-12T02:21:43.259Z,99123.50
2023-04-12T02:24:31.355Z,99135.81
2023-04-12T02:27:19.113Z,99146.84
2023-04-12T02:30:07.772Z,99140.47
2023-04-12T02:32:58.408Z,99140.25
2023-04-12T02:35:52.478Z,99146.22
2023-04-12T02:38:41.589Z,99136.31
2023-04-12T02:41:32.207Z,99136.63
2023-04-12T02:44:21.632Z,99134.88
2023-04-12T02:47:28.825Z,99127.38
2023-04-12T02:50:24.174Z,99133.28
2023-04-12T02:53:22.050Z,99134.59
2023-04-12T02:56:21.967Z,99125.91
2023-04-12T02:59:15.633Z,99146.06
2023-04-12T03:02:24.052Z,99057.91
2023-04-12T03:05:15.048Z,99133.00
2023-04-12T03:08:04.157Z,99139.38
2023-04-12T03:10:59.291Z,99130.63
2023-04-12T03:13:52.581Z,99136.78
2023-04-12T03:16:40.354Z,99139.97
2023-04-12T03:19:35.211Z,99150.13
2023-04-12T03:22:23.723Z,99136.06
2023-04-12T03:25:18.875Z,99113.13
2023-04-12T03:28:13.524Z,99142.31
2023-04-12T03:31:08.929Z,99156.19
2023-04-12T03:34:04.577Z,99113.03
2023-04-12T03:36:52.804Z,99163.84
2023-04-12T03:40:13.488Z,99161.47
2023-04-12T03:43:06.501Z,99160.22
2023-04-12T03:45:55.234Z,99140.75
2023-04-12T03:48:46.190Z,99158.28
2023-04-12T03:51:35.672Z,99161.53
2023-04-12T03:54:25.511Z,99127.56
2023-04-12T03:57:28.959Z,99158.44
2023-04-12T04:00:17.019Z,99061.94
2023-04-12T04:03:27.431Z,99158.72
2023-04-12T04:06:24.514Z,99156.47
2023-04-12T04:09:16.270Z,99160.50
2023-04-12T04:12:04.411Z,99150.84
2023-04-12T04:14:53.301Z,99161.28
2023-04-12T04:17:52.638Z,99156.31
2023-04-12T04:20:40.754Z,99159.19
2023-04-12T04:23:30.885Z,99173.91
2023-04-12T04:26:21.303Z,99172.56
2023-04-12T04:29:18.521Z,99166.44
2023-04-12T04:32:07.827Z,99116.59
2023-04-12T04:35:00.197Z,99153.94
2023-04-12T04:37:57.354Z,99178.88
2023-04-12T04:40:53.579Z,99147.03
2023-04-12T04:43:49.438Z,99146.69
2023-04-12T04:46:39.751Z,99169.31
2023-04-12T04:49:27.525Z,99173.81
2023-04-12T04:52:23.122Z,99167.44
2023-04-12T04:55:12.031Z,99143.63
2023-04-12T04:58:08.720Z,99183.63
2023-04-12T05:00:57.886Z,99187.53
2023-04-12T05:03:50.266Z,99091.16
2023-04-12T05:06:42.443Z,99186.78
2023-04-12T05:09:32.072Z,99176.13
2023-04-12T05:12:20.479Z,99184.06
2023-04-12T05:15:12.684Z,99183.25
2023-04-12T05:18:02.098Z,99161.53
2023-04-12T05:20:51.286Z,99191.59
2023-04-12T05:23:43.954Z,99196.78
2023-04-12T05:26:34.532Z,99188.59
2023-04-12T05:29:28.642Z,99184.03
2023-04-12T05:32:16.793Z,99184.09
2023-04-12T05:35:04.796Z,99143.00
2023-04-12T05:37:57.350Z,99180.22
2023-04-12T05:40:45.837Z,99188.47
2023-04-12T05:43:37.911Z,99186.41
2023-04-12T05:46:27.685Z,99187.97
2023-04-12T05:49:16.227Z,99155.09
2023-04-12T05:52:04.031Z,99172.19
2023-04-12T05:54:53.020Z,99169.09
2023-04-12T05:57:45.778Z,99135.00
2023-04-12T06:00:36.762Z,99157.19
2023-04-12T06:03:24.757Z,99169.81
2023-04-12T06:06:14.026Z,99141.28
2023-04-12T06:09:02.992Z,99165.84
2023-04-12T06:11:52.448Z,99155.22
2023-04-12T06:14:40.612Z,99149.25
2023-04-12T06:17:29.162Z,99165.56
2023-04-12T06:20:17.751Z,99158.38
2023-04-12T06:23:06.922Z,99183.00
2023-04-12T06:25:55.494Z,99156.19
2023-04-12T06:28:43.222Z,99167.69
2023-04-12T06:31:31.873Z,99206.03
2023-04-12T06:34:19.802Z,99207.06
2023-04-12T06:37:16.775Z,99219.34
2023-04-12T06:40:04.800Z,99216.97
2023-04-12T06:42:52.429Z,99216.22
2023-04-12T06:45:43.233Z,99230.13
2023-04-12T06:48:30.992Z,99224.50
2023-04-12T06:51:18.657Z,99226.44
2023-04-12T06:54:06.365Z,99220.84
2023-04-12T06:56:54.000Z,99216.97
2023-04-12T06:59:41.861Z,99207.88
2023-04-12T07:02:29.613Z,99185.22
2023-04-12T07:05:17.535Z,99207.28
2023-04-12T07:08:05.700Z,99202.13
2023-04-12T07:10:56.293Z,99173.47
2023-04-12T07:13:43.856Z,99176.38
2023-04-12T07:16:32.895Z,99180.53
2023-04-12T07:19:20.660Z,99198.97
2023-04-12T07:22:08.772Z,99192.06
2023-04-12T07:24:56.556Z,99161.09
2023-04-12T07:27:44.234Z,99187.34
2023-04-12T07:30:32.111Z,99181.63
2023-04-12T07:33:20.223Z,99182.22
2023-04-12T07:36:08.457Z,99181.34
2023-04-12T07:38:56.880Z,99191.88
2023-04-12T07:41:46.769Z,99193.19
2023-04-12T07:44:37.135Z,99188.47
2023-04-12T07:47:26.372Z,99155.28
2023-04-12T07:50:14.321Z,99187.56
2023-04-12T07:53:25.120Z,99184.59
2023-04-12T07:56:14.592Z,99183.44
2023-04-12T07:59:02.339Z,99183.56
2023-04-12T08:01:49.993Z,99173.91
2023-04-12T08:04:38.497Z,99159.84
2023-04-12T08:07:27.358Z,99168.25
2023-04-12T08:10:14.944Z,99169.00
2023-04-12T08:13:03.056Z,99172.91
2023-04-12T08:15:50.810Z,99167.88
2023-04-12T08:18:38.680Z,99166.28
2023-04-12T08:21:27.852Z,99151.59
2023-04-12T08:24:15.582Z,99174.59
2023-04-12T08:27:03.757Z,99147.22
2023-04-12T08:29:52.262Z,99160.38
2023-04-12T08:32:42.065Z,99174.44
2023-04-12T08:35:30.095Z,99126.84
2023-04-12T08:38:17.800Z,99150.38
2023-04-12T08:41:06.223Z,99154.91
2023-04-12T08:43:56.033Z,99155.25
2023-04-12T08:46:44.878Z,99148.59
2023-04-12T08:49:33.769Z,99173.38
2023-04-12T08:52:21.511Z,99161.25
2023-04-12T08:55:10.764Z,99153.50
2023-04-12T08:58:04.087Z,99142.22
2023-04-12T09:00:52.100Z,99180.34
2023-04-12T09:03:40.264Z,99146.81
2023-04-12T09:06:28.088Z,99177.22
2023-04-12T09:09:15.869Z,99142.41
2023-04-12T09:12:10.914Z,99152.06
2023-04-12T09:15:10.511Z,99128.66
2023-04-12T09:18:16.670Z,99186.34
2023-04-12T09:21:08.869Z,99140.00
2023-04-12T09:24:04.867Z,99170.69
2023-04-12T09:27:11.365Z,99163.91
2023-04-12T09:30:09.501Z,99149.16
2023-04-12T09:33:10.731Z,99149.84
2023-04-12T09:36:02.943Z,99158.41
2023-04-12T09:39:01.766Z,99168.97
2023-04-12T09:42:21.466Z,99153.78
2023-04-12T09:45:26.060Z,99157.13
2023-04-12T09:48:26.570Z,99163.97
2023-04-12T09:51:14.649Z,99142.75
2023-04-12T09:54:07.102Z,99161.97
2023-04-12T09:56:57.134Z,99169.97
2023-04-12T09:59:46.818Z,99162.38
2023-04-12T10:02:35.391Z,99158.25
2023-04-12T10:05:26.956Z,99143.59
2023-04-12T10:08:18.024Z,99166.69
2023-04-12T10:11:06.635Z,99170.13
2023-04-12T10:13:56.744Z,99170.19
2023-04-12T10:16:45.426Z,99187.81
2023-04-12T10:19:36.560Z,99168.94
2023-04-12T10:22:25.203Z,99175.69
2023-04-12T10:25:18.532Z,99157.66
2023-04-12T10:28:17.735Z,99159.34
2023-04-12T10:31:30.853Z,99193.69
2023-04-12T10:34:18.937Z,99178.81
2023-04-12T10:37:06.640Z,99177.00
2023-04-12T10:39:55.136Z,99165.19
2023-04-12T10:42:42.983Z,99167.25
2023-04-12T10:45:34.418Z,99156.97
2023-04-12T10:48:38.279Z,99166.16
2023-04-12T10:51:27.824Z,99149.13
2023-04-12T10:54:25.755Z,99170.13
2023-04-12T10:57:44.266Z,99168.00
2023-04-12T11:00:56.984Z,99167.25
2023-04-12T11:04:11.126Z,99166.06
2023-04-12T11:07:06.806Z,99167.00
2023-04-12T11:10:20.313Z,99185.06
2023-04-12T11:13:09.543Z,99167.91
2023-04-12T11:15:58.141Z,99172.28
2023-04-12T11:18:47.370Z,99182.78
2023-04-12T11:21:35.960Z,99181.72
2023-04-12T11:24:24.002Z,99161.50
2023-04-12T11:27:12.644Z,99160.75
2023-04-12T11:30:01.641Z,99159.97
2023-04-12T11:32:50.062Z,99150.13
2023-04-12T11:35:37.737Z,99172.59
2023-04-12T11:38:25.419Z,99181.03
2023-04-12T11:41:15.142Z,99177.31
2023-04-12T11:44:02.923Z,99168.94
2023-04-12T11:46:50.716Z,99137.09
2023-04-12T11:49:44.391Z,99158.66
2023-04-12T11:52:35.178Z,99143.53
2023-04-12T11:55:23.015Z,99168.47
2023-04-12T11:58:10.711Z,99173.81
2023-04-12T12:01:00.117Z,99173.47
2023-04-12T12:03:49.568Z,99162.56
2023-04-12T12:06:37.602Z,99149.22
2023-04-12T12:09:26.482Z,99178.91
2023-04-12T12:12:14.847Z,99140.72
2023-04-12T12:15:02.911Z,99163.22
2023-04-12T12:17:51.934Z,99105.31
2023-04-12T12:20:42.192Z,99157.66
2023-04-12T12:23:31.217Z,99153.34
2023-04-12T12:26:28.278Z,99163.19
2023-04-12T12:29:19.784Z,99159.66
2023-04-12T12:32:12.528Z,99148.13
2023-04-12T12:35:01.815Z,99162.31
2023-04-12T12:37:52.593Z,99142.03
2023-04-12T12:40:40.932Z,99158.63
2023-04-12T12:43:28.758Z,99146.38
2023-04-12T12:46:19.180Z,99152.22
2023-04-12T12:49:06.937Z,99161.66
2023-04-12T12:51:54.739Z,99165.16
2023-04-12T12:54:42.602Z,99178.91
2023-04-12T12:57:30.219Z,99166.06
2023-04-12T13:00:20.005Z,99175.16
2023-04-12T13:03:08.016Z,99148.41
2023-04-12T13:05:56.720Z,99174.38
2023-04-12T13:08:44.448Z,99159.16
2023-04-12T13:11:32.464Z,99171.47
2023-04-12T13:14:20.143Z,99171.72
2023-04-12T13:17:08.197Z,99162.44
2023-04-12T13:19:56.483Z,99150.00
2023-04-12T13:22:44.176Z,99165.13
2023-04-12T13:25:31.900Z,99173.34
2023-04-12T13:28:21.025Z,99177.72
2023-04-12T13:31:08.761Z,99180.50
2023-04-12T13:33:56.402Z,99159.97
2023-04-12T13:36:44.096Z,99181.19
2023-04-12T13:39:33.154Z,99178.75
2023-04-12T13:42:23.990Z,99183.88
2023-04-12T13:45:12.844Z,99176.34
2023-04-12T13:48:00.665Z,99177.28
2023-04-12T13:50:50.535Z,99164.03
2023-04-12T13:53:39.248Z,99181.75
2023-04-12T13:56:28.265Z,99170.31
2023-04-12T13:59:17.991Z,99181.53
2023-04-12T14:02:05.633Z,99154.38
2023-04-12T14:04:55.357Z,99169.28
2023-04-12T14:07:43.195Z,99166.22
2023-04-12T14:10:30.951Z,99178.69
2023-04-12T14:13:18.604Z,99179.28
2023-04-12T14:16:07.748Z,99188.91
2023-04-12T14:18:55.457Z,99177.66
2023-04-12T14:21:43.344Z,99168.34
2023-04-12T14:24:31.625Z,99201.25
2023-04-12T14:27:19.377Z,99198.56
2023-04-12T14:30:07.757Z,99202.75
2023-04-12T14:33:00.081Z,99181.19
2023-04-12T14:35:50.420Z,99185.78
2023-04-12T14:38:38.170Z,99202.97
2023-04-12T14:41:26.240Z,99215.34
2023-04-12T14:44:13.987Z,99203.47
2023-04-12T14:47:01.686Z,99212.94
2023-04-12T14:49:49.390Z,99207.31
2023-04-12T14:52:37.004Z,99221.81
2023-04-12T14:55:26.488Z,99222.97
2023-04-12T14:58:14.368Z,99217.50
2023-04-12T15:01:02.227Z,99230.34
2023-04-12T15:03:53.403Z,99211.41
2023-04-12T15:06:45.111Z,99223.41
2023-04-12T15:09:33.015Z,99225.19
2023-04-12T15:12:20.682Z,99240.69
2023-04-12T15:15:09.097Z,99243.53
2023-04-12T15:17:59.231Z,99225.78
2023-04-12T15:20:49.669Z,99253.13
2023-04-12T15:23:38.502Z,99239.06
2023-04-12T15:26:26.222Z,99244.19
2023-04-12T15:29:13.986Z,99247.28
2023-04-12T15:32:01.943Z,99233.53
2023-04-12T15:34:51.375Z,99226.84
2023-04-12T15:37:40.480Z,99260.78
2023-04-12T15:40:30.469Z,99212.25
2023-04-12T15:43:18.400Z,99264.16
2023-04-12T15:46:06.587Z,99252.69
2023-04-12T15:48:54.271Z,99244.34
2023-04-12T15:51:42.269Z,99252.75
2023-04-12T15:57:37.617Z,99205.06
2023-04-12T16:00:28.070Z,99275.84
2023-04-12T16:03:19.959Z,99253.00
2023-04-12T16:06:08.112Z,99271.19
2023-04-12T16:08:57.804Z,99225.72
2023-04-12T16:11:48.268Z,99272.81
2023-04-12T16:14:37.051Z,99246.72
2023-04-12T16:17:25.450Z,99277.25
2023-04-12T16:20:17.150Z,99249.22
2023-04-12T16:23:05.485Z,99268.66
2023-04-12T16:25:55.147Z,99281.72
2023-04-12T16:28:43.445Z,99286.91
2023-04-12T16:31:32.197Z,99254.06
2023-04-12T16:34:24.224Z,99286.94
2023-04-12T16:37:11.897Z,99275.44
2023-04-12T16:40:00.897Z,99283.38
2023-04-12T16:42:48.735Z,99288.50
2023-04-12T16:45:42.349Z,99296.03
2023-04-12T16:48:30.767Z,99262.75
2023-04-12T16:51:18.964Z,99288.47
2023-04-12T16:54:06.868Z,99298.78
2023-04-12T16:56:56.580Z,99301.13
2023-04-12T16:59:45.573Z,99306.63
2023-04-12T17:02:33.681Z,99309.34
2023-04-12T17:05:23.159Z,99296.59
2023-04-12T17:08:10.938Z,99320.78
2023-04-12T17:10:58.906Z,99290.50
2023-04-12T17:13:46.989Z,99324.28
2023-04-12T17:16:35.060Z,99315.44
2023-04-12T17:19:22.943Z,99331.66
2023-04-12T17:22:10.811Z,99314.91
2023-04-12T17:24:58.677Z,99324.00
2023-04-12T17:27:46.400Z,99349.28
2023-04-12T17:30:36.644Z,99351.56
2023-04-12T17:33:24.313Z,99347.16
2023-04-12T17:36:12.269Z,99319.31
2023-04-12T17:39:01.621Z,99352.13
2023-04-12T17:41:49.788Z,99359.56
2023-04-12T17:44:56.211Z,99351.94
2023-04-12T17:47:44.148Z,99365.69
2023-04-12T17:50:32.896Z,99341.72
2023-04-12T17:53:20.669Z,99370.25
2023-04-12T17:56:08.667Z,99366.56
2023-04-12T17:58:57.450Z,99372.47
2023-04-12T18:01:47.954Z,99344.94
2023-04-12T18:04:35.807Z,99373.00
2023-04-12T18:07:23.884Z,99367.69
2023-04-12T18:10:15.771Z,99383.38
2023-04-12T18:13:04.886Z,99355.53
2023-04-12T18:15:55.821Z,99385.63
2023-04-12T18:18:43.418Z,99370.84
2023-04-12T18:21:32.265Z,99389.06
2023-04-12T18:24:20.083Z,99398.31
2023-04-12T18:27:10.472Z,99403.97
2023-04-12T18:29:59.513Z,99402.41
2023-04-12T18:32:48.105Z,99409.09
2023-04-12T18:35:38.964Z,99399.72
2023-04-12T18:38:26.717Z,99379.94
2023-04-12T18:41:15.820Z,99401.81
2023-04-12T18:44:03.566Z,99404.47
2023-04-12T18:46:53.761Z,99411.59
2023-04-12T18:49:41.304Z,99392.75
2023-04-12T18:52:29.006Z,99425.09
2023-04-12T18:55:16.715Z,99389.50
2023-04-12T18:58:04.521Z,99406.09
2023-04-12T19:00:52.215Z,99415.94
2023-04-12T19:03:40.141Z,99388.00
2023-04-12T19:06:28.136Z,99357.72
2023-04-12T19:09:16.008Z,99349.53
2023-04-12T19:12:05.416Z,99409.44
2023-04-12T19:14:53.155Z,99424.16
2023-04-12T19:17:40.858Z,99433.94
2023-04-12T19:20:28.885Z,99427.84
2023-04-12T19:23:16.803Z,99414.63
2023-04-12T19:26:05.840Z,99435.47
2023-04-12T19:28:55.822Z,99445.19
2023-04-12T19:31:45.989Z,99434.63
2023-04-12T19:34:36.853Z,99439.81
2023-04-12T19:37:24.552Z,99431.13
2023-04-12T19:40:15.486Z,99438.44
2023-04-12T19:43:04.520Z,99442.50
2023-04-12T19:45:53.250Z,99441.63
2023-04-12T19:48:43.402Z,99438.84
2023-04-12T19:51:31.856Z,99441.25
2023-04-12T19:54:23.805Z,99415.91
2023-04-12T19:57:11.895Z,99433.19
2023-04-12T20:00:00.504Z,99390.91
2023-04-12T20:02:49.604Z,99427.09
2023-04-12T20:05:38.024Z,99437.16
2023-04-12T20:08:26.048Z,99442.16
2023-04-12T20:11:14.899Z,99418.22
2023-04-12T20:14:02.644Z,99414.31
2023-04-12T20:16:51.150Z,99435.63
2023-04-12T20:19:38.901Z,99425.75
2023-04-12T20:22:26.753Z,99424.81
2023-04-12T20:25:15.326Z,99430.91
2023-04-12T20:28:04.697Z,99419.38
2023-04-12T20:30:52.802Z,99421.50
2023-04-12T20:33:41.483Z,99404.06
2023-04-12T20:36:29.868Z,99424.41
2023-04-12T20:39:18.010Z,99420.41
2023-04-12T20:42:06.354Z,99426.09
2023-04-12T20:44:54.006Z,99439.91
2023-04-12T20:47:41.674Z,99410.34
2023-04-12T20:50:30.720Z,99403.47
2023-04-12T20:53:18.413Z,99441.81
2023-04-12T20:56:06.904Z,99420.22
2023-04-12T20:58:55.068Z,99420.28
2023-04-12T21:04:50.957Z,99438.13
2023-04-12T21:07:38.693Z,99436.75
2023-04-12T21:10:29.086Z,99434.53
2023-04-12T21:13:21.957Z,99440.81
2023-04-12T21:16:09.992Z,99442.63
2023-04-12T21:18:59.497Z,99426.75
2023-04-12T21:21:47.526Z,99447.31
2023-04-12T21:24:38.655Z,99407.28
2023-04-12T21:27:26.918Z,99443.03
2023-04-12T21:30:14.685Z,99425.94
2023-04-12T21:33:03.435Z,99449.34
2023-04-12T21:35:55.131Z,99442.28
2023-04-12T21:38:42.874Z,99421.75
2023-04-12T21:41:30.548Z,99458.06
2023-04-12T21:44:18.315Z,99416.97
2023-04-12T21:47:06.955Z,99417.75
2023-04-12T21:49:54.515Z,99429.72
2023-04-12T21:52:44.246Z,99429.63
2023-04-12T21:55:31.937Z,99449.38
2023-04-12T21:58:19.526Z,99452.00
2023-04-12T22:01:07.496Z,99444.47
2023-04-12T22:03:56.223Z,99454.03
2023-04-12T22:06:44.790Z,99447.31
2023-04-12T22:09:33.875Z,99457.69
2023-04-12T22:12:23.100Z,99461.47
2023-04-12T22:15:12.056Z,99454.94
2023-04-12T22:18:00.367Z,99441.97
2023-04-12T22:20:51.079Z,99447.66
2023-04-12T22:23:56.104Z,99447.09
2023-04-12T22:26:49.502Z,99434.06
2023-04-12T22:29:37.960Z,99440.56
2023-04-12T22:32:25.880Z,99432.25
2023-04-12T22:35:13.613Z,99432.69
2023-04-12T22:38:01.452Z,99432.91
2023-04-12T22:40:49.228Z,99438.00
2023-04-12T22:43:42.934Z,99433.09
2023-04-12T22:46:33.655Z,99442.13
2023-04-12T22:49:28.481Z,99422.84
2023-04-12T22:52:17.827Z,99443.47
2023-04-12T22:55:07.690Z,99434.19
2023-04-12T22:57:55.603Z,99424.63
2023-04-12T23:00:43.209Z,99413.66
2023-04-12T23:03:30.905Z,99421.66
2023-04-12T23:06:20.770Z,99410.69
2023-04-12T23:09:09.904Z,99431.72
2023-04-12T23:11:57.703Z,99428.72
2023-04-12T23:14:45.945Z,99426.41
2023-04-12T23:17:34.133Z,99430.72
2023-04-12T23:20:23.431Z,99419.41
2023-04-12T23:23:10.969Z,99408.91
2023-04-12T23:25:59.630Z,99405.03
2023-04-12T23:28:48.418Z,99425.78
2023-04-12T23:31:36.118Z,99391.25
2023-04-12T23:34:23.835Z,99419.16
2023-04-12T23:37:11.588Z,99421.63
2023-04-12T23:40:02.869Z,99411.22
2023-04-12T23:42:51.089Z,99421.28
2023-04-12T23:45:38.951Z,99395.25
2023-04-12T23:48:27.405Z,99400.09
2023-04-12T23:51:16.435Z,99408.91
2023-04-12T23:54:04.200Z,99388.88
2023-04-12T23:56:52.435Z,99413.34
2023-04-12T23:59:40.108Z,99406.72
